64381 station(s) have been heard in the last 24 hours.

<< 720 721 722 723 724 725 726 >>
  Name/Id Latest heard Comment/Other Map
Symbol LU1HMQ-D 1788313530 Powered by WPSD (https://wpsd.radio) Map
Symbol PD4SRL B 1788313530 70cm Voice (D-Star) 439.30000MHz +0.0000MHz Map
Symbol KE4KMD-D 1788313530 70cm MMDVM Voice (DMR) 448.85000MHz +0.0000MHz, APRS for DMRGateway Map
Symbol TA3F-1 1788313530 LoRa Digi on 433.775MHz Temp: 21.97C, Humid:30.51%, Batt: 4.01V, Solar: 0.00V DigiPcktC:0 Map
Symbol M0TAM B 1788313529 70cm Voice (D-Star) 439.40000MHz -9.0000MHz Map
Symbol EA1P-10 1788313529 Lora iGate P=4.22V Map
Symbol KB9TYC 1788313529 W2, WIn, Cameron WI http://bcham.org Map
Symbol IT9KGI-20 1788313529 MESHCOM#P.I.R.S. ITALIA/B=100 Map
Symbol K5SGD-N 1788313529 70cm MMDVM Voice (NXDN) 434.15000MHz +5.0000MHz, APRS for NXDNGateway Map
Symbol G3CWI-10 1788313529 LoRa APRS Map
Symbol EA3ILS-D 1788313529 70cm MMDVM Voice (DMR) 430.51250MHz +0.0000MHz, APRS for DMRGateway Map
Symbol N4HSV AD 1788313529 1.2 Data 1251.000 Map
Symbol XE2NI-1 1788313529 `_7 Map
Symbol YU2KBI-13 1788313529 Mini Weather station esp8266 bme280 https://thingspeak.com/channels/1204217 Map
Symbol KL7BR-10 1788313529 145.010MHz Winlink Packet Gateway Map
Symbol BA4QAO-1 1788313529 E1[@udp://bh1osw.nrlptt.com:60050 NRL] Map
Symbol N4HSV B 1788313529 440 Voice 443.425 +5.00 MHz Map
Symbol JP1YLC-I 1788313529 JP1YLC Ibaraki Mito D-STAR -> APRS Map
Symbol ER-F6ZDB 1788313529 430.450MHz T088 R169k Repeater by F4KOA hosted by CSU-Limousin Map
Symbol DO7KB-12 1788313529 MeshCom FFO/B=100 Map
Symbol W8EWO-B 1788313529 70cm Voice (D-Star) 434.55000MHz +0.0000MHz Map
Symbol VK8RTE-B 1788313529 440 Voice 438.100 -7MHz Map
Symbol N4HSV C 1788313529 2m Voice 145.360 -0.600 MHz Map
Symbol PA4FS B 1788313529 70cm Voice (D-Star) 438.80000MHz +0.0000MHz Map
Symbol NV7PC-10 1788313528 PicoAPRS - World's smallest APRS Transceiver by DB1NTO! Map
Symbol YD1AFF-5 1788313528 CQ APRSMX COLIMA Map
Symbol N4HSV A 1788313528 1.2 Voice 1285.000 -12 MHz Map
Symbol AD2Q-D 1788313528 70cm MMDVM Voice (DMR) 444.40000MHz +5.0000MHz, APRS for DMRGateway Map
Symbol G0EDY-B 1788313528 70cm Voice (D-Star) 439.73750MHz +0.0000MHz Map
Symbol JN3XKL-10 1788313528 Taga town 1200bps I-gate {UIV32} Map
Symbol YO7MGH-3 1788313528 Digipeater U=12.9V, T=24.6C Map
Symbol JA9UZF-10 1788313528 UI-View32 V2.03 Map
Symbol DM0DOS-R 1788313528 70cm MMDVM Voice (C4FM) 438.47500MHz -7.6000MHz, DM0DOS_Pi-Star_RPT Map
Symbol PU2PJH B 1788313528 70cm Voice (D-Star) 433.40000MHz +5.0000MHz, APRS for ircDDBGateway Map
Symbol HP3ICC-3 1788313528 433.775MHz APRS LoRa Igate HP3ICC-3 Batt=4.29V Map
Symbol W4AKH B 1788313527 440 Voice 444.500 +5.00 MHz Map
Symbol J41VAI 1788313527 Map
Symbol AA9PR-10 1788313527 - APRS iGate Map
Symbol IU2MQD-D 1788313527 70cm MMDVM Voice (DMR) 433.60000MHz +0.0000MHz, APRS for DMRGateway Map
Symbol W9MPA-1 1788313527 GEARY COUNTY,KS Map
Symbol PU2KAZ-B 1788313527 2m Voice (D-Star) 144.80000MHz +0.0000MHz Map
Symbol K2SHU-B 1788313527 70cm Voice (D-Star) 433.10000MHz +0.0000MHz Map
Symbol KL7AA 1788313527 144.930MHz Winlink VARA FM Wide Gateway Map
Symbol W5MPZ-B 1788313527 443.800MHz +5 MHz DV Map
Symbol W5LMS B 1788313527 70cm Voice (D-Star) 433.50000MHz +0.0000MHz Map
Symbol N1KPW B 1788313527 70cm Voice (D-Star) 446.52500MHz +0.0000MHz Map
Symbol 439.275LT 1788313527 439.275MHz C077 -760 R30k SR8LLB Lubartow Map
Symbol K9SAT-D 1788313527 70cm MMDVM Voice (DMR) 433.80000MHz +5.0000MHz, APRS for DMRGateway Map
Symbol OH9MBS 1788313527 Timpan testi {UIV32N} Map
Symbol W4BJB-1 1788313527 Can reach me via WCARES-TN, MTEARS. DMR3191977 !TNWX! !SN!93685 Map